createdAt,value
2024-05-09T00:00:18.682Z,7.53
2024-05-09T00:02:53.117Z,7.72
2024-05-09T00:05:19.806Z,7.57
2024-05-09T00:07:46.510Z,8.52
2024-05-09T00:10:22.290Z,7.68
2024-05-09T00:12:55.703Z,8.18
2024-05-09T00:15:22.257Z,8.07
2024-05-09T00:17:48.850Z,5.43
2024-05-09T00:20:20.520Z,7.38
2024-05-09T00:22:51.275Z,7.38
2024-05-09T00:25:17.889Z,7.97
2024-05-09T00:27:44.502Z,8.23
2024-05-09T00:30:17.460Z,8.10
2024-05-09T00:32:48.182Z,7.32
2024-05-09T00:35:14.909Z,8.07
2024-05-09T00:37:41.460Z,8.52
2024-05-09T00:40:15.094Z,8.38
2024-05-09T00:42:48.852Z,7.32
2024-05-09T00:45:15.447Z,8.25
2024-05-09T00:47:43.224Z,7.82
2024-05-09T00:50:15.957Z,7.53
2024-05-09T00:52:49.288Z,8.02
2024-05-09T00:55:17.292Z,8.77
2024-05-09T00:57:44.728Z,7.60
2024-05-09T01:00:22.402Z,8.32
2024-05-09T01:02:57.146Z,6.45
2024-05-09T01:05:23.820Z,8.60
2024-05-09T01:07:50.398Z,8.10
2024-05-09T01:10:21.321Z,7.13
2024-05-09T01:12:54.291Z,6.28
2024-05-09T01:15:20.811Z,6.65
2024-05-09T01:17:48.471Z,6.00
2024-05-09T01:20:20.235Z,8.20
2024-05-09T01:22:54.403Z,5.90
2024-05-09T01:25:21.097Z,7.75
2024-05-09T01:27:47.612Z,7.43
2024-05-09T01:30:17.451Z,7.45
2024-05-09T01:32:48.066Z,6.72
2024-05-09T01:35:14.807Z,7.50
2024-05-09T01:37:41.569Z,7.28
2024-05-09T01:40:12.349Z,8.23
2024-05-09T01:42:44.874Z,7.80
2024-05-09T01:45:12.277Z,8.52
2024-05-09T01:47:39.116Z,7.82
2024-05-09T01:50:09.001Z,7.00
2024-05-09T01:52:38.843Z,7.25
2024-05-09T01:55:07.153Z,6.00
2024-05-09T01:57:33.899Z,7.65
2024-05-09T02:00:00.423Z,6.30
2024-05-09T02:02:27.181Z,6.57
2024-05-09T02:04:53.940Z,7.53
2024-05-09T02:07:20.760Z,6.25
2024-05-09T02:09:47.353Z,6.93
2024-05-09T02:12:13.995Z,7.38
2024-05-09T02:14:40.605Z,5.95
2024-05-09T02:17:07.283Z,6.70
2024-05-09T02:19:34.000Z,6.57
2024-05-09T02:22:00.633Z,7.55
2024-05-09T02:24:27.296Z,7.50
2024-05-09T02:26:53.807Z,7.22
2024-05-09T02:29:20.342Z,6.97
2024-05-09T02:31:47.071Z,8.73
2024-05-09T02:34:13.818Z,7.68
2024-05-09T02:36:40.381Z,6.40
2024-05-09T02:39:06.957Z,8.18
2024-05-09T02:41:33.527Z,5.63
2024-05-09T02:44:00.119Z,6.82
2024-05-09T02:46:26.706Z,7.00
2024-05-09T02:48:53.434Z,7.57
2024-05-09T02:51:20.030Z,6.72
2024-05-09T02:53:46.676Z,5.60
2024-05-09T02:56:13.390Z,5.78
2024-05-09T02:58:39.968Z,6.78
2024-05-09T03:01:06.580Z,4.97
2024-05-09T03:03:33.491Z,6.85
2024-05-09T03:06:01.939Z,8.18
2024-05-09T03:08:28.615Z,7.10
2024-05-09T03:10:55.226Z,6.95
2024-05-09T03:13:21.834Z,7.15
2024-05-09T03:15:48.342Z,7.22
2024-05-09T03:18:15.005Z,7.03
2024-05-09T03:20:43.754Z,6.38
2024-05-09T03:23:10.747Z,6.30
2024-05-09T03:25:38.490Z,7.10
2024-05-09T03:28:05.584Z,6.43
2024-05-09T03:30:39.920Z,6.35
2024-05-09T03:33:19.913Z,7.10
2024-05-09T03:35:48.044Z,8.30
2024-05-09T03:38:15.281Z,7.50
2024-05-09T03:40:49.895Z,8.10
2024-05-09T03:43:17.702Z,6.18
2024-05-09T03:45:44.991Z,6.75
2024-05-09T03:48:11.841Z,8.10
2024-05-09T03:50:38.876Z,6.90
2024-05-09T03:53:06.320Z,6.97
2024-05-09T03:55:32.947Z,5.82
2024-05-09T03:57:59.674Z,6.45
2024-05-09T04:00:35.016Z,7.78
2024-05-09T04:03:10.752Z,7.20
2024-05-09T04:05:44.399Z,5.93
2024-05-09T04:08:11.721Z,6.65
2024-05-09T04:10:38.477Z,7.60
2024-05-09T04:13:05.378Z,5.72
2024-05-09T04:15:32.466Z,7.07
2024-05-09T04:18:02.601Z,8.27
2024-05-09T04:20:37.380Z,7.22
2024-05-09T04:23:08.237Z,7.18
2024-05-09T04:25:35.803Z,9.05
2024-05-09T04:28:02.513Z,9.25
2024-05-09T04:30:36.743Z,5.95
2024-05-09T04:33:08.512Z,6.63
2024-05-09T04:35:37.122Z,6.43
2024-05-09T04:38:04.475Z,5.65
2024-05-09T04:40:34.621Z,6.25
2024-05-09T04:43:07.581Z,8.27
2024-05-09T04:45:34.958Z,7.70
2024-05-09T04:48:02.338Z,6.90
2024-05-09T04:50:35.722Z,6.68
2024-05-09T04:53:06.747Z,7.07
2024-05-09T04:55:34.114Z,10.35
2024-05-09T04:58:01.097Z,8.05
2024-05-09T05:00:35.499Z,7.50
2024-05-09T05:03:10.260Z,8.88
2024-05-09T05:05:42.663Z,7.07
2024-05-09T05:08:13.881Z,7.00
2024-05-09T05:10:41.310Z,9.02
2024-05-09T05:13:18.361Z,8.63
2024-05-09T05:15:55.932Z,6.72
2024-05-09T05:18:23.839Z,6.75
2024-05-09T05:20:50.647Z,8.02
2024-05-09T05:23:21.854Z,8.82
2024-05-09T05:25:49.956Z,7.75
2024-05-09T05:28:17.151Z,12.07
2024-05-09T05:30:44.023Z,11.50
2024-05-09T05:33:12.583Z,11.45
2024-05-09T05:35:40.319Z,13.68
2024-05-09T05:38:08.137Z,13.55
2024-05-09T05:40:40.393Z,11.68
2024-05-09T05:43:09.741Z,14.23
2024-05-09T05:48:04.773Z,15.50
2024-05-09T05:50:35.686Z,13.40
2024-05-09T05:53:05.917Z,15.05
2024-05-09T05:55:32.724Z,16.92
2024-05-09T05:57:59.549Z,18.08
2024-05-09T06:00:34.086Z,14.20
2024-05-09T06:03:05.176Z,14.80
2024-05-09T06:05:32.178Z,16.85
2024-05-09T06:07:59.052Z,15.65
2024-05-09T06:10:30.386Z,16.27
2024-05-09T06:13:04.402Z,18.08
2024-05-09T06:15:30.950Z,16.30
2024-05-09T06:17:57.652Z,15.45
2024-05-09T06:20:33.913Z,16.30
2024-05-09T06:23:03.525Z,18.15
2024-05-09T06:25:30.230Z,16.65
2024-05-09T06:27:56.860Z,17.60
2024-05-09T06:30:30.391Z,17.98
2024-05-09T06:33:05.505Z,17.00
2024-05-09T06:35:32.970Z,16.73
2024-05-09T06:37:59.798Z,19.98
2024-05-09T06:40:35.899Z,15.63
2024-05-09T06:43:05.861Z,18.88
2024-05-09T06:45:32.566Z,19.98
2024-05-09T06:47:59.469Z,16.02
2024-05-09T06:50:31.132Z,19.98
2024-05-09T06:53:02.719Z,17.42
2024-05-09T06:55:29.378Z,15.85
2024-05-09T06:57:55.989Z,16.75
2024-05-09T07:00:30.399Z,18.02
2024-05-09T07:03:08.393Z,17.55
2024-05-09T07:05:35.316Z,16.95
2024-05-09T07:08:01.945Z,16.95
2024-05-09T07:10:34.131Z,17.58
2024-05-09T07:13:01.967Z,15.98
2024-05-09T07:15:28.571Z,14.85
2024-05-09T07:17:55.477Z,15.65
2024-05-09T07:20:31.707Z,17.73
2024-05-09T07:23:02.727Z,14.68
2024-05-09T07:25:29.538Z,12.55
2024-05-09T07:27:56.180Z,15.63
2024-05-09T07:30:27.801Z,15.90
2024-05-09T07:33:00.347Z,13.32
2024-05-09T07:35:27.471Z,15.65
2024-05-09T07:37:54.360Z,13.52
2024-05-09T07:40:31.719Z,14.13
2024-05-09T07:43:07.420Z,14.60
2024-05-09T07:52:23.425Z,13.43
2024-05-09T07:53:39.060Z,13.60
2024-05-09T07:56:09.739Z,14.90
2024-05-09T07:58:37.105Z,13.15
2024-05-09T08:01:04.007Z,14.73
2024-05-09T08:03:31.269Z,11.70
2024-05-09T08:05:57.912Z,11.63
2024-05-09T08:08:24.453Z,11.88
2024-05-09T08:10:51.539Z,11.60
2024-05-09T08:13:18.435Z,10.48
2024-05-09T08:15:45.210Z,11.13
2024-05-09T08:18:12.130Z,10.30
2024-05-09T08:20:39.765Z,10.52
2024-05-09T08:23:06.850Z,10.85
2024-05-09T08:25:33.525Z,10.38
2024-05-09T08:28:00.149Z,10.57
2024-05-09T08:30:33.439Z,10.65
2024-05-09T08:33:04.347Z,12.35
2024-05-09T08:35:31.595Z,10.80
2024-05-09T08:37:58.282Z,10.93
2024-05-09T08:40:32.828Z,9.52
2024-05-09T08:43:02.977Z,11.20
2024-05-09T08:45:31.187Z,9.52
2024-05-09T08:48:01.266Z,10.32
2024-05-09T08:50:36.135Z,9.98
2024-05-09T08:53:05.873Z,12.73
2024-05-09T08:55:32.701Z,12.10
2024-05-09T08:58:02.968Z,11.43
2024-05-09T09:00:36.768Z,10.18
2024-05-09T09:03:09.093Z,10.88
2024-05-09T09:05:38.909Z,11.98
2024-05-09T09:08:07.830Z,11.50
2024-05-09T09:10:35.230Z,9.57
2024-05-09T09:13:04.459Z,11.20
2024-05-09T09:15:31.691Z,10.45
2024-05-09T09:17:59.955Z,9.90
2024-05-09T09:23:03.772Z,12.07
2024-05-09T09:25:32.068Z,10.50
2024-05-09T09:27:59.247Z,10.95
2024-05-09T09:30:36.262Z,10.25
2024-05-09T09:33:06.267Z,11.30
2024-05-09T09:38:02.541Z,10.50
2024-05-09T09:40:36.218Z,10.88
2024-05-09T09:43:14.746Z,8.73
2024-05-09T09:45:43.533Z,9.77
2024-05-09T09:50:38.842Z,10.32
2024-05-09T09:53:07.585Z,10.57
2024-05-09T09:55:35.615Z,11.75
2024-05-09T09:58:04.160Z,10.55
2024-05-09T10:00:33.402Z,9.35
2024-05-09T10:03:01.705Z,10.13
2024-05-09T10:05:30.007Z,11.25
2024-05-09T10:07:58.379Z,11.65
2024-05-09T10:10:32.053Z,11.30
2024-05-09T10:13:04.156Z,11.13
2024-05-09T10:15:42.847Z,9.45
2024-05-09T10:18:09.726Z,9.23
2024-05-09T10:20:46.472Z,9.38
2024-05-09T10:23:26.794Z,7.25
2024-05-09T10:28:32.025Z,7.82
2024-05-09T10:31:08.867Z,7.65
2024-05-09T10:33:55.712Z,6.38
2024-05-09T10:36:26.626Z,6.45
2024-05-09T10:38:54.429Z,7.53
2024-05-09T10:41:22.989Z,7.40
2024-05-09T10:43:50.478Z,7.45
2024-05-09T10:46:19.142Z,8.93
2024-05-09T10:48:47.379Z,7.07
2024-05-09T10:51:14.200Z,8.43
2024-05-09T10:53:45.455Z,7.35
2024-05-09T10:56:14.398Z,8.27
2024-05-09T10:58:41.102Z,8.65
2024-05-09T11:01:09.235Z,8.85
2024-05-09T11:03:36.889Z,10.10
2024-05-09T11:06:04.182Z,10.10
2024-05-09T11:08:32.480Z,7.70
2024-05-09T11:10:59.841Z,9.48
2024-05-09T11:13:34.817Z,8.07
2024-05-09T11:16:02.757Z,7.60
2024-05-09T11:18:35.150Z,8.32
2024-05-09T11:21:12.580Z,9.85
2024-05-09T11:23:39.747Z,7.60
2024-05-09T11:26:06.959Z,8.82
2024-05-09T11:28:33.502Z,8.60
2024-05-09T11:31:10.545Z,7.38
2024-05-09T11:33:45.545Z,10.00
2024-05-09T11:36:12.935Z,10.13
2024-05-09T11:38:40.125Z,9.20
2024-05-09T11:41:06.636Z,11.80
2024-05-09T11:43:33.602Z,10.95
2024-05-09T11:46:01.175Z,12.60
2024-05-09T11:48:28.243Z,8.90
2024-05-09T11:50:55.525Z,10.65
2024-05-09T11:53:22.578Z,8.88
2024-05-09T11:55:49.304Z,10.93
2024-05-09T11:58:17.819Z,10.38
2024-05-09T12:00:45.330Z,9.63
2024-05-09T12:03:12.411Z,11.30
2024-05-09T12:05:39.254Z,10.68
2024-05-09T12:08:06.867Z,9.50
2024-05-09T12:10:35.757Z,10.20
2024-05-09T12:13:05.067Z,13.18
2024-05-09T12:15:33.881Z,11.38
2024-05-09T12:18:03.351Z,10.82
2024-05-09T12:20:36.698Z,10.65
2024-05-09T12:23:06.247Z,9.77
2024-05-09T12:25:32.945Z,10.02
2024-05-09T12:27:59.940Z,9.93
2024-05-09T12:30:35.429Z,11.48
2024-05-09T12:33:06.180Z,9.45
2024-05-09T12:35:33.038Z,11.63
2024-05-09T12:37:59.840Z,11.15
2024-05-09T12:40:34.598Z,11.15
2024-05-09T12:43:04.824Z,10.55
2024-05-09T12:45:31.863Z,10.88
2024-05-09T12:47:58.691Z,11.32
2024-05-09T12:50:31.920Z,11.45
2024-05-09T12:53:00.947Z,11.77
2024-05-09T12:55:28.531Z,14.75
2024-05-09T12:57:57.249Z,11.77
2024-05-09T13:00:31.111Z,12.23
2024-05-09T13:03:00.642Z,10.95
2024-05-09T13:05:27.811Z,10.55
2024-05-09T13:07:56.264Z,12.10
2024-05-09T13:10:29.423Z,12.85
2024-05-09T13:12:59.812Z,12.82
2024-05-09T13:15:26.769Z,11.93
2024-05-09T13:17:53.431Z,11.77
2024-05-09T13:20:28.993Z,11.98
2024-05-09T13:23:01.819Z,12.25
2024-05-09T13:25:28.512Z,11.57
2024-05-09T13:27:56.297Z,11.98
2024-05-09T13:30:29.764Z,10.85
2024-05-09T13:33:06.337Z,12.20
2024-05-09T13:35:35.216Z,11.02
2024-05-09T13:38:02.599Z,12.75
2024-05-09T13:40:33.807Z,11.88
2024-05-09T13:43:02.983Z,11.30
2024-05-09T13:45:29.863Z,10.52
2024-05-09T13:47:56.824Z,11.35
2024-05-09T13:50:31.549Z,11.93
2024-05-09T13:53:02.147Z,11.25
2024-05-09T13:55:28.811Z,14.27
2024-05-09T13:57:55.814Z,10.15
2024-05-09T14:00:32.296Z,11.05
2024-05-09T14:03:09.383Z,12.27
2024-05-09T14:05:36.274Z,13.02
2024-05-09T14:08:03.190Z,10.75
2024-05-09T14:10:31.870Z,10.82
2024-05-09T14:13:00.261Z,11.75
2024-05-09T14:15:27.035Z,12.48
2024-05-09T14:17:54.511Z,11.70
2024-05-09T14:20:30.326Z,9.35
2024-05-09T14:22:59.408Z,12.00
2024-05-09T14:25:31.724Z,10.90
2024-05-09T14:27:58.519Z,11.10
2024-05-09T14:30:34.882Z,11.88
2024-05-09T14:33:05.875Z,12.52
2024-05-09T14:35:33.219Z,10.55
2024-05-09T14:37:59.925Z,11.23
2024-05-09T14:40:36.916Z,11.23
2024-05-09T14:43:11.302Z,12.98
2024-05-09T14:45:38.485Z,10.32
2024-05-09T14:48:06.171Z,12.57
2024-05-09T14:50:37.361Z,12.77
2024-05-09T14:53:07.499Z,10.90
2024-05-09T14:55:37.511Z,11.68
2024-05-09T14:58:08.611Z,12.73
2024-05-09T15:00:41.303Z,9.63
2024-05-09T15:03:11.298Z,11.48
2024-05-09T15:05:38.104Z,14.05
2024-05-09T15:08:08.642Z,11.75
2024-05-09T15:10:36.882Z,12.43
2024-05-09T15:13:05.376Z,12.82
2024-05-09T15:15:32.988Z,12.05
2024-05-09T15:18:00.311Z,11.70
2024-05-09T15:20:33.955Z,12.25
2024-05-09T15:23:03.366Z,10.65
2024-05-09T15:25:30.381Z,12.93
2024-05-09T15:27:57.549Z,14.57
2024-05-09T15:30:30.405Z,13.95
2024-05-09T15:32:59.687Z,13.50
2024-05-09T15:35:26.314Z,13.93
2024-05-09T15:37:52.908Z,14.20
2024-05-09T15:40:26.847Z,15.35
2024-05-09T15:43:02.435Z,14.48
2024-05-09T15:45:29.331Z,16.90
2024-05-09T15:47:56.943Z,17.25
2024-05-09T15:50:35.168Z,15.82
2024-05-09T15:53:05.928Z,17.45
2024-05-09T15:55:33.937Z,17.92
2024-05-09T16:00:36.574Z,15.45
2024-05-09T16:03:07.122Z,14.05
2024-05-09T16:05:34.023Z,11.77
2024-05-09T16:08:00.997Z,14.88
2024-05-09T16:10:32.566Z,16.10
2024-05-09T16:13:01.043Z,11.70
2024-05-09T16:15:27.762Z,16.95
2024-05-09T16:17:58.541Z,20.27
2024-05-09T16:20:34.761Z,17.88
2024-05-09T16:23:07.063Z,17.65
2024-05-09T16:25:33.674Z,16.65
2024-05-09T16:28:00.692Z,18.83
2024-05-09T16:30:34.147Z,17.00
2024-05-09T16:33:03.744Z,18.10
2024-05-09T16:35:31.068Z,15.35
2024-05-09T16:37:57.682Z,16.30
2024-05-09T16:40:34.283Z,17.08
2024-05-09T16:43:05.890Z,18.55
2024-05-09T16:45:33.187Z,18.52
2024-05-09T16:48:00.529Z,17.73
2024-05-09T16:50:32.597Z,19.55
2024-05-09T16:53:01.581Z,18.00
2024-05-09T16:55:28.234Z,18.83
2024-05-09T16:57:56.100Z,19.35
2024-05-09T17:00:31.798Z,19.17
2024-05-09T17:03:07.421Z,18.92
2024-05-09T17:05:35.405Z,20.45
2024-05-09T17:08:02.533Z,20.98
2024-05-09T17:10:33.093Z,20.55
2024-05-09T17:13:02.474Z,21.17
2024-05-09T17:15:29.635Z,22.65
2024-05-09T17:17:56.745Z,18.77
2024-05-09T17:20:31.285Z,20.40
2024-05-09T17:23:02.274Z,19.77
2024-05-09T17:25:29.228Z,23.10
2024-05-09T17:27:56.590Z,24.13
2024-05-09T17:30:29.395Z,17.45
2024-05-09T17:33:03.186Z,19.63
2024-05-09T17:35:30.013Z,19.33
2024-05-09T17:37:56.817Z,21.77
2024-05-09T17:42:53.142Z,22.45
2024-05-09T17:45:20.626Z,20.35
2024-05-09T17:47:47.709Z,18.70
2024-05-09T17:50:21.006Z,19.25
2024-05-09T17:52:53.644Z,20.33
2024-05-09T17:55:20.743Z,20.45
2024-05-09T17:57:47.475Z,19.92
2024-05-09T18:00:17.469Z,19.30
2024-05-09T18:02:49.974Z,18.05
2024-05-09T18:07:43.346Z,16.83
2024-05-09T18:10:19.034Z,18.02
2024-05-09T18:12:49.054Z,19.63
2024-05-09T18:15:15.662Z,19.60
2024-05-09T18:17:42.659Z,18.23
2024-05-09T18:20:14.136Z,17.52
2024-05-09T18:22:46.253Z,19.75
2024-05-09T18:25:13.125Z,21.02
2024-05-09T18:27:39.776Z,18.63
2024-05-09T18:30:09.484Z,17.92
2024-05-09T18:32:38.233Z,19.92
2024-05-09T18:35:05.189Z,19.73
2024-05-09T18:37:31.789Z,18.92
2024-05-09T18:39:58.416Z,20.55
2024-05-09T18:42:25.016Z,20.00
2024-05-09T18:44:51.592Z,20.77
2024-05-09T18:47:20.237Z,16.40
2024-05-09T18:49:47.130Z,19.30
2024-05-09T18:52:14.048Z,19.42
2024-05-09T18:54:40.725Z,17.33
2024-05-09T18:57:07.525Z,16.88
2024-05-09T18:59:37.123Z,19.45
2024-05-09T19:02:04.471Z,18.58
2024-05-09T19:04:31.530Z,16.98
2024-05-09T19:06:58.271Z,17.52
2024-05-09T19:09:24.861Z,19.27
2024-05-09T19:11:51.540Z,16.73
2024-05-09T19:14:18.308Z,19.50
2024-05-09T19:16:44.969Z,16.83
2024-05-09T19:19:12.419Z,19.48
2024-05-09T19:21:42.127Z,20.20
2024-05-09T19:24:10.568Z,18.73
2024-05-09T19:26:37.225Z,19.90
2024-05-09T19:29:03.814Z,18.08
2024-05-09T19:31:37.155Z,20.27
2024-05-09T19:34:03.778Z,18.73
2024-05-09T19:36:33.374Z,19.67
2024-05-09T19:38:59.964Z,16.75
2024-05-09T19:41:26.582Z,17.83
2024-05-09T19:43:55.807Z,21.33
2024-05-09T19:46:23.624Z,21.70
2024-05-09T19:48:50.615Z,21.35
2024-05-09T19:51:17.295Z,23.52
2024-05-09T19:53:46.395Z,20.10
2024-05-09T19:56:13.080Z,19.25
2024-05-09T19:58:41.351Z,17.33
2024-05-09T20:01:10.762Z,17.63
2024-05-09T20:03:38.074Z,20.65
2024-05-09T20:06:05.061Z,22.25
2024-05-09T20:08:33.736Z,22.48
2024-05-09T20:11:00.349Z,18.70
2024-05-09T20:13:27.246Z,20.77
2024-05-09T20:16:01.370Z,20.83
2024-05-09T20:18:28.266Z,21.27
2024-05-09T20:20:55.079Z,22.75
2024-05-09T20:23:21.837Z,25.23
2024-05-09T20:25:48.409Z,21.02
2024-05-09T20:28:15.046Z,21.90
2024-05-09T20:30:46.841Z,21.42
2024-05-09T20:33:14.254Z,20.75
2024-05-09T20:35:46.043Z,20.77
2024-05-09T20:38:16.787Z,22.50
2024-05-09T20:40:43.858Z,22.52
2024-05-09T20:43:10.958Z,30.23
2024-05-09T20:45:38.123Z,25.35
2024-05-09T20:48:06.100Z,24.73
2024-05-09T20:50:38.675Z,27.02
2024-05-09T20:53:13.179Z,25.70
2024-05-09T20:55:41.051Z,24.83
2024-05-09T20:58:08.395Z,28.13
2024-05-09T21:00:40.051Z,27.25
2024-05-09T21:03:11.481Z,27.55
2024-05-09T21:05:39.035Z,25.83
2024-05-09T21:08:06.332Z,24.75
2024-05-09T21:10:34.150Z,28.27
2024-05-09T21:13:03.360Z,28.85
2024-05-09T21:15:30.795Z,27.02
2024-05-09T21:17:57.687Z,23.85
2024-05-09T21:20:30.921Z,25.80
2024-05-09T21:22:59.574Z,26.08
2024-05-09T21:25:26.598Z,27.10
2024-05-09T21:27:53.584Z,26.35
2024-05-09T21:30:31.580Z,25.15
2024-05-09T21:33:08.472Z,29.58
2024-05-09T21:35:40.938Z,27.17
2024-05-09T21:38:11.023Z,30.13
2024-05-09T21:40:38.525Z,29.63
2024-05-09T21:43:07.403Z,26.70
2024-05-09T21:48:05.101Z,30.38
2024-05-09T21:50:38.989Z,25.08
2024-05-09T21:53:08.083Z,28.25
2024-05-09T21:55:34.849Z,32.85
2024-05-09T21:58:01.813Z,25.33
2024-05-09T22:00:35.654Z,27.50
2024-05-09T22:03:05.860Z,28.10
2024-05-09T22:05:35.562Z,29.20
2024-05-09T22:08:04.222Z,28.13
2024-05-09T22:10:34.750Z,27.35
2024-05-09T22:13:04.863Z,30.98
2024-05-09T22:18:02.795Z,27.90
2024-05-09T22:20:36.535Z,29.17
2024-05-09T22:23:05.558Z,27.80
2024-05-09T22:25:32.802Z,27.50
2024-05-09T22:28:01.272Z,30.80
2024-05-09T22:30:35.609Z,29.15
2024-05-09T22:33:07.288Z,27.05
2024-05-09T22:35:34.092Z,28.10
2024-05-09T22:38:00.962Z,28.40
2024-05-09T22:40:38.415Z,28.17
2024-05-09T22:43:14.907Z,27.52
2024-05-09T22:45:41.691Z,29.02
2024-05-09T22:48:09.281Z,27.30
2024-05-09T22:50:36.154Z,26.23
2024-05-09T22:53:10.796Z,27.73
2024-05-09T22:55:37.307Z,30.83
2024-05-09T22:58:04.084Z,26.92
2024-05-09T23:00:33.421Z,29.63
2024-05-09T23:03:01.597Z,28.27
2024-05-09T23:05:29.012Z,28.77
2024-05-09T23:07:55.911Z,27.67
2024-05-09T23:10:30.895Z,26.50
2024-05-09T23:13:01.998Z,29.90
2024-05-09T23:15:28.742Z,29.17
2024-05-09T23:17:55.715Z,25.88
2024-05-09T23:20:33.115Z,26.73
2024-05-09T23:23:05.123Z,31.95
2024-05-09T23:25:34.733Z,29.48
2024-05-09T23:28:01.410Z,31.08
2024-05-09T23:30:34.633Z,32.58
2024-05-09T23:33:08.472Z,27.20
2024-05-09T23:38:57.479Z,31.77
2024-05-09T23:41:27.107Z,27.35
2024-05-09T23:43:53.679Z,27.55
2024-05-09T23:46:20.895Z,26.33
2024-05-09T23:48:49.872Z,26.33
2024-05-09T23:53:51.688Z,26.52
2024-05-09T23:56:21.145Z,26.73
2024-05-09T23:58:48.375Z,26.42
